Time;durP1;ratioP1;P1;durP2;ratioP2;P2;SDS_P1;SDS_P2;PMS_P1;PMS_P2;Temp;Humidity;BMP_temperature;BMP_pressure;BME280_temperature;BME280_humidity;BME280_pressure;Samples;Min_cycle;Max_cycle;Signal;HPM_P1;HPM_P2
2022/07/05 10:32:28;;;;;;;;;;;;;;;32.83;31.43;99721.47;6020194;23;1686;-70
2022/07/05 10:34:59;;;;;;;;;;;;;;;32.78;31.74;99725.28;4993769;28;1363;-75
2022/07/05 10:37:28;;;;;;;;;;;;;;;33.00;32.38;99718.91;5011216;28;1159;-73
2022/07/05 10:40:03;;;;;;;;;;;;;;;33.18;31.43;99713.53;4995507;28;1993;-72
2022/07/05 10:42:33;;;;;;;;;;;;;;;33.20;31.48;99719.44;4997501;28;1366;-76
2022/07/05 10:57:23;;;;;;;;;;;;;;;33.05;30.36;99722.94;5014925;28;692;-70
2022/07/05 11:00:06;;;;;;;;;;;;;;;33.29;31.27;99718.94;4997253;28;1965;-69
2022/07/05 11:02:32;;;;;;;;;;;;;;;33.72;29.81;99717.44;5014323;28;807;-68
2022/07/05 11:04:59;;;;;;;;;;;;;;;33.85;29.42;99707.94;4996853;28;1267;-71
2022/07/05 11:07:47;;;;;;;;;;;;;;;33.83;29.50;99704.88;5014372;28;794;-69
2022/07/05 11:10:13;;;;;;;;;;;;;;;34.18;30.50;99703.25;4983586;28;1381;-73
2022/07/05 11:12:40;;;;;;;;;;;;;;;34.34;30.00;99706.91;5014343;28;854;-71
2022/07/05 11:15:08;;;;;;;;;;;;;;;34.41;29.01;99699.63;5014328;28;818;-73
2022/07/05 11:17:36;;;;;;;;;;;;;;;34.44;28.29;99698.47;5014211;28;897;-72
2022/07/05 11:20:10;;;;;;;;;;;;;;;34.37;28.17;99697.13;5014072;28;2265;-71
2022/07/05 11:22:37;;;;;;;;;;;;;;;34.34;27.82;99696.19;5014440;28;826;-76
2022/07/05 11:25:05;;;;;;;;;;;;;;;34.52;27.72;99696.38;5014001;28;988;-70
2022/07/05 11:27:33;;;;;;;;;;;;;;;34.43;27.96;99691.22;5014155;28;854;-69
2022/07/05 11:29:59;;;;;;;;;;;;;;;34.41;28.67;99699.63;5013996;28;1895;-73
2022/07/05 11:32:29;;;;;;;;;;;;;;;34.76;28.16;99695.06;5014114;28;924;-71
2022/07/05 11:35:15;;;;;;;;;;;;;;;35.15;27.38;99681.44;4994574;28;831;-73
2022/07/05 11:38:04;;;;;;;;;;;;;;;35.17;27.96;99687.34;4994655;28;804;-70
2022/07/05 11:40:46;;;;;;;;;;;;;;;35.05;26.86;99681.22;4994233;28;918;-73
2022/07/05 11:43:14;;;;;;;;;;;;;;;34.94;26.56;99678.75;4974320;28;1327;-70
2022/07/05 11:58:12;;;;;;;;;;;;;;;36.85;25.84;99666.75;4914904;29;634;-69
2022/07/05 12:00:42;;;;;;;;;;;;;;;36.89;25.39;99673.63;4899067;29;1206;-73
2022/07/05 12:03:12;;;;;;;;;;;;;;;37.16;24.46;99667.97;4914813;29;926;-72
2022/07/05 12:05:40;;;;;;;;;;;;;;;37.10;25.10;99658.81;4914850;29;820;-73
2022/07/05 12:08:06;;;;;;;;;;;;;;;37.41;25.69;99655.59;4914754;29;1042;-72
2022/07/05 12:13:17;;;;;;;;;;;;;;;38.09;24.90;99661.00;4915045;29;680;-71
2022/07/05 12:15:46;;;;;;;;;;;;;;;38.87;24.15;99661.22;4914751;29;971;-73
2022/07/05 12:18:14;;;;;;;;;;;;;;;38.32;23.16;99658.50;4914215;29;1415;-73
2022/07/05 12:23:46;;;;;;;;;;;;;;;38.20;24.01;99648.91;4911306;29;1134;-69
2022/07/05 12:26:16;;;;;;;;;;;;;;;38.04;24.16;99642.63;4914422;29;1097;-73
2022/07/05 12:28:43;;;;;;;;;;;;;;;38.31;24.23;99648.34;4956474;28;1045;-71
2022/07/05 12:31:16;;;;;;;;;;;;;;;39.12;23.39;99644.38;4993126;28;1886;-73
2022/07/05 12:33:43;;;;;;;;;;;;;;;38.63;23.23;99649.34;4993091;28;1107;-73
2022/07/05 12:36:13;;;;;;;;;;;;;;;37.95;23.74;99640.44;4993321;28;850;-73
2022/07/05 12:38:40;;;;;;;;;;;;;;;37.93;23.91;99649.69;4993436;28;898;-71
2022/07/05 12:41:06;;;;;;;;;;;;;;;38.09;23.82;99650.25;4993107;28;932;-73
2022/07/05 12:43:51;;;;;;;;;;;;;;;38.06;24.20;99653.56;4993023;28;819;-73
2022/07/05 12:46:18;;;;;;;;;;;;;;;38.20;23.95;99641.00;4992984;28;795;-74
2022/07/05 12:48:51;;;;;;;;;;;;;;;38.25;24.13;99644.97;4974856;28;1406;-72
2022/07/05 12:51:31;;;;;;;;;;;;;;;37.58;25.03;99643.28;4992857;28;1914;-69
2022/07/05 13:00:00;;;;;;;;;;;;;;;36.85;25.93;99646.59;4993048;28;657;-73
2022/07/05 13:02:41;;;;;;;;;;;;;;;36.85;25.61;99643.72;4992505;28;830;-70
2022/07/05 13:05:09;;;;;;;;;;;;;;;36.82;26.17;99644.91;4992703;28;925;-72
2022/07/05 13:11:00;;;;;;;;;;;;;;;37.47;25.87;99638.78;4913730;29;1882;-74
2022/07/05 13:13:45;;;;;;;;;;;;;;;37.79;25.56;99640.66;4894599;29;1429;-73
2022/07/05 13:16:12;;;;;;;;;;;;;;;37.97;25.62;99640.59;4894581;29;1080;-68
2022/07/05 13:18:47;;;;;;;;;;;;;;;37.70;25.17;99635.59;4894771;29;844;-74
2022/07/05 13:21:25;;;;;;;;;;;;;;;37.68;25.55;99640.44;4915794;28;1405;-75
2022/07/05 13:23:52;;;;;;;;;;;;;;;37.23;25.14;99636.78;4954379;28;1321;-72
2022/07/05 13:26:18;;;;;;;;;;;;;;;37.31;25.82;99638.22;4970894;28;835;-70
2022/07/05 13:28:45;;;;;;;;;;;;;;;37.20;25.66;99638.75;4970810;28;863;-76
2022/07/05 13:31:19;;;;;;;;;;;;;;;36.84;25.71;99642.97;4954521;28;1886;-73
2022/07/05 13:33:46;;;;;;;;;;;;;;;37.25;26.08;99634.06;4953639;28;1348;-71
2022/07/05 13:36:13;;;;;;;;;;;;;;;37.11;25.88;99637.31;4969249;28;1245;-73
2022/07/05 13:38:39;;;;;;;;;;;;;;;37.23;26.31;99633.91;4970709;28;851;-75
2022/07/05 13:41:05;;;;;;;;;;;;;;;37.34;25.96;99631.28;4954566;28;1254;-72
2022/07/05 13:46:40;;;;;;;;;;;;;;;36.73;26.72;99629.06;4970799;28;635;-72
2022/07/05 13:49:07;;;;;;;;;;;;;;;36.65;26.84;99626.28;4970934;28;835;-70
2022/07/05 13:51:34;;;;;;;;;;;;;;;36.24;27.10;99622.78;5002577;28;1914;-74
2022/07/05 13:54:01;;;;;;;;;;;;;;;35.80;27.95;99616.78;5011858;28;866;-72
2022/07/05 13:56:38;;;;;;;;;;;;;;;35.82;27.67;99619.81;5011847;28;847;-72
2022/07/05 13:59:05;;;;;;;;;;;;;;;35.55;27.49;99621.13;5011955;28;815;-73
2022/07/05 14:01:31;;;;;;;;;;;;;;;35.37;28.25;99620.22;5012171;28;803;-73
2022/07/05 14:03:58;;;;;;;;;;;;;;;35.28;28.75;99618.00;4993568;28;1367;-73
2022/07/05 14:06:40;;;;;;;;;;;;;;;35.33;29.01;99619.88;5012060;28;834;-73
2022/07/05 14:09:08;;;;;;;;;;;;;;;35.35;28.91;99613.53;5011996;28;855;-70
2022/07/05 14:11:34;;;;;;;;;;;;;;;35.17;28.82;99622.06;5011992;28;1936;-70
2022/07/05 14:14:01;;;;;;;;;;;;;;;34.75;29.54;99616.03;4993977;28;1246;-72
2022/07/05 14:16:31;;;;;;;;;;;;;;;34.26;30.39;99612.25;4996913;28;1178;-73
2022/07/05 14:19:06;;;;;;;;;;;;;;;33.82;31.12;99621.00;5015395;28;834;-74
2022/07/05 14:21:33;;;;;;;;;;;;;;;33.54;31.95;99613.25;4993226;28;1301;-73
2022/07/05 14:23:59;;;;;;;;;;;;;;;33.22;31.98;99613.72;5015408;28;858;-71
2022/07/05 14:26:27;;;;;;;;;;;;;;;33.09;32.88;99614.59;5015474;28;858;-69
2022/07/05 14:28:53;;;;;;;;;;;;;;;32.77;32.17;99612.88;5015360;28;811;-72
2022/07/05 14:31:19;;;;;;;;;;;;;;;32.46;32.73;99603.34;5015048;28;1885;-71
2022/07/05 14:33:46;;;;;;;;;;;;;;;32.25;33.99;99614.78;5014952;28;1271;-73
2022/07/05 14:36:12;;;;;;;;;;;;;;;31.79;34.29;99603.66;5015398;28;855;-73
2022/07/05 14:38:39;;;;;;;;;;;;;;;31.53;35.09;99601.69;4997515;28;1153;-70
2022/07/05 14:41:05;;;;;;;;;;;;;;;31.25;36.09;99593.75;5015339;28;846;-72
2022/07/05 14:43:32;;;;;;;;;;;;;;;30.90;36.42;99587.97;4997345;28;1308;-70
2022/07/05 14:45:59;;;;;;;;;;;;;;;30.58;36.17;99590.94;5014875;28;854;-71
2022/07/05 14:48:27;;;;;;;;;;;;;;;30.47;36.99;99585.41;5014902;28;834;-72
2022/07/05 14:51:06;;;;;;;;;;;;;;;30.40;37.16;99586.09;5014574;28;1910;-71
2022/07/05 14:53:32;;;;;;;;;;;;;;;30.19;37.09;99575.28;5014849;28;843;-70
2022/07/05 14:55:59;;;;;;;;;;;;;;;30.15;37.48;99572.00;4997071;28;1257;-70
2022/07/05 14:58:30;;;;;;;;;;;;;;;30.27;37.47;99576.16;4997366;28;1177;-73
2022/07/05 15:00:59;;;;;;;;;;;;;;;30.36;37.24;99577.09;5014932;28;881;-73
2022/07/05 15:03:26;;;;;;;;;;;;;;;30.31;37.22;99573.78;5014859;28;850;-73
2022/07/05 15:05:53;;;;;;;;;;;;;;;30.37;37.33;99575.78;5014707;28;806;-73
2022/07/05 15:08:20;;;;;;;;;;;;;;;30.41;36.79;99576.22;4997131;28;1201;-72
2022/07/05 15:10:47;;;;;;;;;;;;;;;30.41;37.33;99577.00;4996715;28;1945;-68
2022/07/05 15:13:14;;;;;;;;;;;;;;;30.32;37.54;99572.50;4997019;28;1062;-73
2022/07/05 15:15:41;;;;;;;;;;;;;;;30.37;37.56;99578.63;5010973;28;1444;-72
2022/07/05 15:18:07;;;;;;;;;;;;;;;30.41;37.14;99576.22;5014218;28;902;-70
2022/07/05 15:20:34;;;;;;;;;;;;;;;30.41;36.71;99579.09;4996712;28;1168;-74
2022/07/05 15:35:12;;;;;;;;;;;;;;;29.74;38.29;99584.56;4995254;28;1325;-73
2022/07/05 15:37:41;;;;;;;;;;;;;;;29.59;38.59;99581.44;4994372;28;1327;-69
2022/07/05 15:40:08;;;;;;;;;;;;;;;29.44;38.90;99582.66;4977035;28;1264;-71
2022/07/05 15:42:41;;;;;;;;;;;;;;;29.36;38.81;99593.16;4994700;28;878;-72
2022/07/05 15:45:11;;;;;;;;;;;;;;;29.24;38.82;99586.84;4994490;28;885;-77
2022/07/05 15:47:44;;;;;;;;;;;;;;;29.14;39.56;99593.47;4976808;28;1335;-73
2022/07/05 15:50:16;;;;;;;;;;;;;;;29.08;39.53;99602.81;4994342;28;1907;-70
2022/07/05 15:52:43;;;;;;;;;;;;;;;28.94;40.05;99601.19;4994657;28;846;-70
2022/07/05 15:55:11;;;;;;;;;;;;;;;28.96;40.21;99600.66;4994700;28;760;-71
2022/07/05 15:57:38;;;;;;;;;;;;;;;29.01;40.09;99600.56;4994175;28;910;-73
2022/07/05 16:00:05;;;;;;;;;;;;;;;29.14;39.83;99599.91;4994311;28;800;-73
2022/07/05 16:02:32;;;;;;;;;;;;;;;29.35;39.46;99597.31;4994221;28;901;-73
2022/07/05 16:04:58;;;;;;;;;;;;;;;29.64;38.72;99592.75;4994222;28;814;-73
2022/07/05 16:07:25;;;;;;;;;;;;;;;30.02;38.27;99597.59;4976687;28;1222;-70
2022/07/05 16:09:52;;;;;;;;;;;;;;;30.10;38.33;99598.50;4993660;28;1959;-70
2022/07/05 16:12:22;;;;;;;;;;;;;;;29.69;39.18;99596.81;4994168;28;853;-71
2022/07/05 16:14:49;;;;;;;;;;;;;;;29.12;40.35;99599.66;4976167;28;1067;-73
2022/07/05 16:17:16;;;;;;;;;;;;;;;28.78;41.21;99591.53;4993612;28;886;-70
2022/07/05 16:19:43;;;;;;;;;;;;;;;28.64;42.04;99590.66;4993421;28;850;-72
2022/07/05 16:22:13;;;;;;;;;;;;;;;28.41;42.36;99592.19;4993567;28;835;-73
2022/07/05 16:24:42;;;;;;;;;;;;;;;27.98;43.70;99592.84;4993570;28;866;-76
2022/07/05 16:27:09;;;;;;;;;;;;;;;27.64;44.32;99585.31;4993338;28;1178;-72
2022/07/05 16:29:35;;;;;;;;;;;;;;;27.34;45.20;99584.47;4993174;28;1944;-73
2022/07/05 16:32:03;;;;;;;;;;;;;;;27.08;45.52;99577.88;4993472;28;1029;-73
2022/07/05 16:34:29;;;;;;;;;;;;;;;26.90;45.97;99575.63;4975682;28;1273;-73
2022/07/05 16:36:56;;;;;;;;;;;;;;;26.77;46.95;99578.25;4993363;28;827;-73
2022/07/05 16:39:23;;;;;;;;;;;;;;;26.63;47.35;99572.38;4976167;28;1099;-75
2022/07/05 16:41:50;;;;;;;;;;;;;;;26.52;47.72;99572.38;4993271;28;1016;-75
2022/07/05 16:44:29;;;;;;;;;;;;;;;26.40;47.65;99576.53;4993496;28;878;-75
2022/07/05 16:46:56;;;;;;;;;;;;;;;26.26;48.25;99573.44;4976010;28;1205;-74
2022/07/05 16:49:22;;;;;;;;;;;;;;;26.10;48.86;99567.84;4993036;28;1902;-73
2022/07/05 16:51:49;;;;;;;;;;;;;;;25.92;49.25;99569.88;4993129;28;788;-73
2022/07/05 16:54:22;;;;;;;;;;;;;;;25.76;50.01;99573.47;4993132;28;843;-75
2022/07/05 16:56:48;;;;;;;;;;;;;;;25.59;51.10;99576.28;4976240;28;1282;-75
2022/07/05 16:59:15;;;;;;;;;;;;;;;25.45;51.92;99575.22;4993241;28;852;-77
2022/07/05 17:01:41;;;;;;;;;;;;;;;25.33;52.46;99579.28;4993450;28;881;-75
2022/07/05 17:04:08;;;;;;;;;;;;;;;25.21;52.55;99572.84;4993213;28;799;-75
2022/07/05 17:06:36;;;;;;;;;;;;;;;25.13;52.65;99580.25;4993133;28;863;-75
2022/07/05 17:09:03;;;;;;;;;;;;;;;25.00;53.51;99589.19;4993193;28;772;-75
2022/07/05 17:11:30;;;;;;;;;;;;;;;24.80;54.24;99579.63;4975576;28;1894;-72
2022/07/05 17:13:57;;;;;;;;;;;;;;;24.67;54.50;99578.53;4975628;28;1174;-72
2022/07/05 17:16:31;;;;;;;;;;;;;;;24.48;55.19;99578.91;4975574;28;1063;-73
2022/07/05 17:18:58;;;;;;;;;;;;;;;24.28;56.19;99590.31;4992535;28;1098;-74
2022/07/05 17:21:25;;;;;;;;;;;;;;;23.99;57.30;99592.94;4992953;28;915;-75
2022/07/05 17:24:09;;;;;;;;;;;;;;;23.71;58.37;99589.84;4992847;28;807;-75
2022/07/05 17:26:46;;;;;;;;;;;;;;;;;;;;;
2022/07/05 17:29:24;;;;;;;;;;;;;;;23.11;60.31;99581.03;4983330;28;1934;-73
2022/07/05 17:31:58;;;;;;;;;;;;;;;22.91;61.03;99581.00;4974962;28;950;-74
2022/07/05 17:34:24;;;;;;;;;;;;;;;22.70;61.64;99588.66;5003990;28;1568;-73
2022/07/05 17:36:52;;;;;;;;;;;;;;;22.47;62.36;99588.38;4994538;28;1506;-74
2022/07/05 17:39:18;;;;;;;;;;;;;;;22.30;63.13;99582.50;4994583;28;1307;-74
2022/07/05 17:41:45;;;;;;;;;;;;;;;22.13;63.66;99576.56;5012226;28;806;-74
2022/07/05 17:44:13;;;;;;;;;;;;;;;21.99;64.16;99580.16;5011783;28;866;-74
2022/07/05 17:46:38;;;;;;;;;;;;;;;21.80;64.97;99588.03;5011889;28;842;-75
2022/07/05 17:49:05;;;;;;;;;;;;;;;21.65;65.45;99587.28;5012355;28;811;-73
2022/07/05 17:51:32;;;;;;;;;;;;;;;21.59;65.93;99595.59;5016131;28;1910;-72
2022/07/05 17:53:59;;;;;;;;;;;;;;;21.50;66.44;99590.84;5016191;28;783;-73
2022/07/05 17:56:26;;;;;;;;;;;;;;;21.36;66.86;99595.16;4998541;28;1160;-73
2022/07/05 18:01:37;;;;;;;;;;;;;;;21.04;68.27;99599.66;5016696;28;711;-74
2022/07/05 18:04:04;;;;;;;;;;;;;;;20.95;68.73;99602.50;5015833;28;814;-73
2022/07/05 18:06:31;;;;;;;;;;;;;;;20.90;69.10;99597.56;5016280;28;802;-74
2022/07/05 18:08:58;;;;;;;;;;;;;;;20.88;69.35;99598.03;5016953;28;910;-76
2022/07/05 18:11:24;;;;;;;;;;;;;;;20.81;69.55;99595.59;4974745;28;1886;-76
2022/07/05 18:13:51;;;;;;;;;;;;;;;20.74;69.93;99601.56;4959026;28;1352;-74
2022/07/05 18:19:19;;;;;;;;;;;;;;;20.62;70.66;99599.78;4975129;28;1422;-75
2022/07/05 18:21:46;;;;;;;;;;;;;;;20.53;70.95;99592.16;4974361;28;911;-77
2022/07/05 18:24:12;;;;;;;;;;;;;;;20.43;71.16;99594.22;4974810;28;1107;-76
2022/07/05 18:26:39;;;;;;;;;;;;;;;20.31;71.74;99590.41;4974965;28;932;-77
2022/07/05 18:32:10;;;;;;;;;;;;;;;20.03;72.81;99591.75;4974669;28;923;-76
2022/07/05 18:34:38;;;;;;;;;;;;;;;19.98;73.24;99596.75;4957908;28;1179;-75
2022/07/05 18:37:07;;;;;;;;;;;;;;;19.97;73.35;99598.00;4958222;28;1202;-77
2022/07/05 18:39:33;;;;;;;;;;;;;;;19.94;73.72;99598.94;4974145;28;945;-76
2022/07/05 18:42:03;;;;;;;;;;;;;;;19.87;73.97;99606.91;4987568;28;913;-76
2022/07/05 18:44:29;;;;;;;;;;;;;;;19.80;74.36;99610.84;4998208;28;886;-74
2022/07/05 18:47:10;;;;;;;;;;;;;;;19.73;74.70;99611.13;4998715;28;1278;-77
2022/07/05 18:52:42;;;;;;;;;;;;;;;19.61;75.34;99606.44;5015394;28;1105;-75
2022/07/05 18:55:27;;;;;;;;;;;;;;;19.59;75.49;99604.91;5014890;28;855;-77
2022/07/05 18:57:55;;;;;;;;;;;;;;;19.58;75.69;99610.97;4997847;28;1302;-74
2022/07/05 19:00:22;;;;;;;;;;;;;;;19.53;75.93;99603.97;5014643;28;811;-73
2022/07/05 19:02:49;;;;;;;;;;;;;;;19.49;76.12;99600.56;5014687;28;873;-73
2022/07/05 19:05:15;;;;;;;;;;;;;;;19.45;76.47;99601.97;4997226;28;971;-75
2022/07/05 19:13:40;;;;;;;;;;;;;;;19.23;77.32;99600.13;5014387;28;1878;-74
2022/07/05 19:13:42;;;;;;;;;;;;;;;19.11;77.99;99593.41;5013799;28;885;-73
2022/07/05 19:16:12;;;;;;;;;;;;;;;19.05;78.26;99592.47;4996784;28;1665;-73
2022/07/05 19:18:39;;;;;;;;;;;;;;;19.05;78.51;99580.50;4997243;28;1466;-74
2022/07/05 19:21:06;;;;;;;;;;;;;;;19.02;78.69;99576.59;5014388;28;855;-73
2022/07/05 19:23:33;;;;;;;;;;;;;;;18.96;78.84;99570.84;5014380;28;779;-73
2022/07/05 19:26:00;;;;;;;;;;;;;;;18.87;79.23;99576.44;5014059;28;900;-73
2022/07/05 19:28:26;;;;;;;;;;;;;;;18.84;79.28;99571.78;5014105;28;851;-73
2022/07/05 19:30:54;;;;;;;;;;;;;;;18.81;79.56;99566.31;5014297;28;1878;-73
2022/07/05 19:33:23;;;;;;;;;;;;;;;18.77;79.70;99572.03;5014019;28;1397;-73
2022/07/05 19:35:50;;;;;;;;;;;;;;;18.74;79.80;99568.16;5013937;28;946;-73
2022/07/05 19:38:17;;;;;;;;;;;;;;;18.75;79.90;99569.72;5013846;28;835;-73
2022/07/05 19:40:43;;;;;;;;;;;;;;;18.74;79.73;99570.19;4996582;28;838;-73
2022/07/05 19:43:10;;;;;;;;;;;;;;;18.66;79.73;99568.91;5013746;28;949;-73
2022/07/05 19:45:36;;;;;;;;;;;;;;;18.61;79.78;99575.91;5013692;28;819;-72
2022/07/05 19:48:03;;;;;;;;;;;;;;;18.60;79.39;99579.16;5013761;28;838;-73
2022/07/05 19:50:32;;;;;;;;;;;;;;;18.60;78.89;99590.34;5013537;28;1910;-74
2022/07/05 19:52:59;;;;;;;;;;;;;;;18.53;78.72;99589.41;5013502;28;917;-73
2022/07/05 19:55:25;;;;;;;;;;;;;;;18.49;78.29;99582.41;5013530;28;882;-73
2022/07/05 19:57:52;;;;;;;;;;;;;;;18.45;78.10;99579.75;5013545;28;942;-72
2022/07/05 20:00:18;;;;;;;;;;;;;;;18.39;77.84;99576.00;5013437;28;834;-72
2022/07/05 20:02:46;;;;;;;;;;;;;;;18.32;77.71;99576.28;5013389;28;857;-72
2022/07/05 20:05:12;;;;;;;;;;;;;;;18.25;77.89;99565.41;4995936;28;870;-73
2022/07/05 20:07:39;;;;;;;;;;;;;;;18.21;77.70;99573.94;5013327;28;867;-73
2022/07/05 20:10:05;;;;;;;;;;;;;;;18.16;77.72;99569.72;4995847;28;1882;-73
2022/07/05 20:12:32;;;;;;;;;;;;;;;18.13;77.71;99579.00;5012608;28;834;-73
2022/07/05 20:14:59;;;;;;;;;;;;;;;18.15;77.79;99575.75;5013170;28;814;-72
2022/07/05 20:17:25;;;;;;;;;;;;;;;18.15;77.79;99581.34;5013090;28;870;-72
2022/07/05 20:19:52;;;;;;;;;;;;;;;18.16;77.92;99580.91;5013138;28;868;-75
2022/07/05 20:22:19;;;;;;;;;;;;;;;18.12;77.82;99579.50;5013120;28;807;-76
2022/07/05 20:24:45;;;;;;;;;;;;;;;18.03;77.83;99583.03;4995644;28;1184;-74
2022/07/05 20:27:19;;;;;;;;;;;;;;;17.93;78.18;99578.63;5013077;28;807;-74
2022/07/05 20:29:46;;;;;;;;;;;;;;;17.79;78.73;99581.94;4995681;28;1882;-76
2022/07/05 20:32:13;;;;;;;;;;;;;;;17.63;79.48;99578.13;5012972;28;1051;-73
2022/07/05 20:34:41;;;;;;;;;;;;;;;17.64;80.12;99571.28;5012775;28;1549;-73
2022/07/05 20:37:08;;;;;;;;;;;;;;;17.73;79.84;99573.34;5012985;28;874;-74
2022/07/05 20:39:36;;;;;;;;;;;;;;;17.72;80.07;99569.00;5012788;28;846;-72
2022/07/05 20:42:03;;;;;;;;;;;;;;;17.70;79.99;99569.47;5012652;28;874;-73
2022/07/05 20:44:30;;;;;;;;;;;;;;;17.69;79.94;99569.94;4995029;28;1178;-71
2022/07/05 20:46:56;;;;;;;;;;;;;;;17.66;80.23;99570.84;4995265;28;1046;-71
2022/07/05 20:49:23;;;;;;;;;;;;;;;17.61;80.39;99572.22;4995352;28;1236;-73
2022/07/05 20:51:49;;;;;;;;;;;;;;;17.59;80.47;99566.28;4994765;28;1975;-74
2022/07/05 20:54:16;;;;;;;;;;;;;;;17.60;80.66;99559.44;4994858;28;1055;-72
2022/07/05 20:56:48;;;;;;;;;;;;;;;17.57;80.40;99548.44;5012439;28;823;-73
2022/07/05 20:59:15;;;;;;;;;;;;;;;17.56;80.50;99553.25;5012385;28;1120;-73
2022/07/05 21:01:42;;;;;;;;;;;;;;;17.52;80.40;99544.22;4995147;28;1321;-73
2022/07/05 21:04:09;;;;;;;;;;;;;;;17.47;80.52;99542.00;5012454;28;843;-73
2022/07/05 21:06:36;;;;;;;;;;;;;;;17.43;80.87;99532.97;5012501;28;803;-73
2022/07/05 21:09:02;;;;;;;;;;;;;;;17.43;81.01;99536.56;5012656;28;768;-75
2022/07/05 21:11:32;;;;;;;;;;;;;;;17.44;81.03;99537.34;5012294;28;1952;-74
2022/07/05 21:13:59;;;;;;;;;;;;;;;17.49;80.96;99542.31;5012290;28;815;-75
2022/07/05 21:16:26;;;;;;;;;;;;;;;17.52;80.74;99542.19;4995064;28;975;-74
2022/07/05 21:18:56;;;;;;;;;;;;;;;17.50;80.69;99544.66;4995016;28;1070;-74
2022/07/05 21:21:22;;;;;;;;;;;;;;;17.51;80.64;99537.81;4995357;28;1178;-75
2022/07/05 21:23:48;;;;;;;;;;;;;;;17.55;80.51;99546.09;4994418;28;1158;-76
2022/07/05 21:26:15;;;;;;;;;;;;;;;17.44;80.76;99542.91;5012415;28;811;-74
2022/07/05 21:28:45;;;;;;;;;;;;;;;17.29;81.42;99545.47;4995172;28;1098;-75
2022/07/05 21:31:32;;;;;;;;;;;;;;;17.17;81.97;99546.28;4995124;28;1918;-75
2022/07/05 21:34:08;;;;;;;;;;;;;;;17.05;82.61;99547.94;4994902;28;1347;-73
2022/07/05 21:36:35;;;;;;;;;;;;;;;16.90;82.98;99556.03;4994910;28;1171;-74
2022/07/05 21:39:01;;;;;;;;;;;;;;;16.80;83.65;99555.16;4995187;28;1195;-74
2022/07/05 21:41:28;;;;;;;;;;;;;;;16.73;83.94;99550.56;4994494;28;1212;-74
2022/07/05 21:43:55;;;;;;;;;;;;;;;16.73;84.34;99556.16;5012071;28;838;-74
2022/07/05 21:46:21;;;;;;;;;;;;;;;16.76;84.29;99551.66;5011970;28;920;-74
2022/07/05 21:48:48;;;;;;;;;;;;;;;16.83;84.21;99556.25;4994210;28;1045;-75
2022/07/05 21:51:15;;;;;;;;;;;;;;;16.92;83.96;99562.69;5011601;28;1910;-74
2022/07/05 21:53:41;;;;;;;;;;;;;;;17.03;84.06;99550.38;5011837;28;878;-74
2022/07/05 21:56:08;;;;;;;;;;;;;;;17.12;83.57;99550.44;4994507;28;1249;-73
2022/07/05 22:04:26;;;;;;;;;;;;;;;17.20;82.91;99543.38;5011789;28;621;-73
2022/07/05 22:06:53;;;;;;;;;;;;;;;17.31;82.70;99543.00;5012524;28;776;-74
2022/07/05 22:09:20;;;;;;;;;;;;;;;17.39;82.46;99549.06;5011801;28;850;-74
2022/07/05 22:11:46;;;;;;;;;;;;;;;17.41;82.28;99543.81;5012383;28;1945;-73
2022/07/05 22:14:13;;;;;;;;;;;;;;;17.46;82.15;99549.59;4994472;28;870;-73
2022/07/05 22:16:40;;;;;;;;;;;;;;;17.47;81.89;99550.38;5012370;28;771;-74
2022/07/05 22:19:07;;;;;;;;;;;;;;;17.35;82.30;99560.41;5012112;28;780;-74
2022/07/05 22:21:33;;;;;;;;;;;;;;;17.31;82.36;99560.53;5011528;28;835;-73
2022/07/05 22:24:00;;;;;;;;;;;;;;;17.41;82.04;99566.16;5011628;28;799;-73
2022/07/05 22:26:27;;;;;;;;;;;;;;;17.44;81.68;99560.44;5011625;28;830;-74
2022/07/05 22:28:53;;;;;;;;;;;;;;;17.35;81.73;99555.59;5011663;28;807;-74
2022/07/05 22:31:20;;;;;;;;;;;;;;;17.06;82.56;99571.81;4994377;28;1941;-74
2022/07/05 22:33:47;;;;;;;;;;;;;;;16.76;83.33;99567.63;4994176;28;1243;-75
2022/07/05 22:36:13;;;;;;;;;;;;;;;16.53;84.20;99567.56;5014190;28;874;-73
2022/07/05 22:38:40;;;;;;;;;;;;;;;16.38;84.82;99569.25;5015088;28;885;-74
2022/07/05 22:41:07;;;;;;;;;;;;;;;16.24;85.02;99570.50;5014966;28;878;-73
2022/07/05 22:43:34;;;;;;;;;;;;;;;16.12;85.07;99574.06;5014899;28;815;-73
2022/07/05 22:46:00;;;;;;;;;;;;;;;16.01;85.19;99576.41;5015102;28;822;-72
2022/07/05 22:48:36;;;;;;;;;;;;;;;15.93;84.97;99571.03;5015286;28;838;-73
2022/07/05 22:51:12;;;;;;;;;;;;;;;;;;;;;
2022/07/05 22:53:42;;;;;;;;;;;;;;;15.73;84.80;99567.69;5016002;28;717;-73
2022/07/05 22:56:09;;;;;;;;;;;;;;;15.61;84.83;99571.97;5014662;28;814;-74
2022/07/05 22:58:35;;;;;;;;;;;;;;;15.57;84.81;99571.31;4995539;28;1389;-73
2022/07/05 23:01:02;;;;;;;;;;;;;;;15.56;84.74;99572.53;5014551;28;882;-73
2022/07/05 23:03:28;;;;;;;;;;;;;;;15.58;84.66;99560.97;4992840;28;1419;-74
2022/07/05 23:05:55;;;;;;;;;;;;;;;15.59;84.91;99562.50;4992760;28;921;-72
2022/07/05 23:08:22;;;;;;;;;;;;;;;15.64;84.79;99564.72;4992887;28;951;-73
2022/07/05 23:10:49;;;;;;;;;;;;;;;15.74;84.67;99560.88;4992775;28;1960;-73
2022/07/05 23:13:20;;;;;;;;;;;;;;;15.89;84.24;99559.22;4992557;28;847;-72
2022/07/05 23:15:47;;;;;;;;;;;;;;;15.99;83.93;99562.91;4992669;28;835;-73
2022/07/05 23:18:13;;;;;;;;;;;;;;;16.00;83.78;99561.72;4992562;28;957;-72
2022/07/05 23:20:40;;;;;;;;;;;;;;;16.00;83.57;99558.91;4976168;28;911;-76
2022/07/05 23:23:07;;;;;;;;;;;;;;;16.01;83.35;99559.69;4992467;28;874;-75
2022/07/05 23:25:33;;;;;;;;;;;;;;;15.96;83.05;99561.03;4976067;28;1249;-74
2022/07/05 23:28:00;;;;;;;;;;;;;;;15.91;83.06;99548.41;4992335;28;931;-74
2022/07/05 23:30:26;;;;;;;;;;;;;;;15.90;82.87;99549.66;4992369;28;1886;-74
2022/07/05 23:32:53;;;;;;;;;;;;;;;15.84;82.76;99550.66;4975863;28;1192;-74
2022/07/05 23:35:20;;;;;;;;;;;;;;;15.75;82.73;99553.34;5010767;28;1394;-74
2022/07/05 23:37:46;;;;;;;;;;;;;;;15.74;82.81;99558.09;5013874;28;834;-75
2022/07/05 23:40:13;;;;;;;;;;;;;;;15.84;82.77;99557.00;5013929;28;846;-75
2022/07/05 23:42:40;;;;;;;;;;;;;;;15.90;82.13;99554.44;5013822;28;822;-73
2022/07/05 23:45:07;;;;;;;;;;;;;;;15.97;81.17;99547.88;5013829;28;1045;-74
2022/07/05 23:47:34;;;;;;;;;;;;;;;16.00;79.89;99556.13;5012734;28;890;-74
2022/07/05 23:50:00;;;;;;;;;;;;;;;16.04;79.15;99558.78;5013571;28;1965;-74
2022/07/05 23:52:26;;;;;;;;;;;;;;;16.09;78.06;99558.25;5013545;28;855;-74
2022/07/05 23:54:53;;;;;;;;;;;;;;;16.07;77.35;99557.91;5013587;28;846;-74
2022/07/05 23:57:20;;;;;;;;;;;;;;;15.91;77.53;99544.84;5013463;28;795;-74
2022/07/05 23:59:46;;;;;;;;;;;;;;;15.69;77.98;99545.47;5013467;28;857;-73
